sensor_id;sensor_type;location;lat;lon;timestamp;P1;durP1;ratioP1;P2;durP2;ratioP2
18857;SDS011;9558;50.178;8.370;2022-11-09T00:01:32;2.33;;;1.45;;
18857;SDS011;9558;50.178;8.370;2022-11-09T00:03:59;2.85;;;1.17;;
18857;SDS011;9558;50.178;8.370;2022-11-09T00:06:28;7.45;;;1.63;;
18857;SDS011;9558;50.178;8.370;2022-11-09T00:08:55;4.22;;;1.42;;
18857;SDS011;9558;50.178;8.370;2022-11-09T00:11:22;3.55;;;1.10;;
18857;SDS011;9558;50.178;8.370;2022-11-09T00:13:50;3.88;;;1.90;;
18857;SDS011;9558;50.178;8.370;2022-11-09T00:16:17;1.92;;;1.23;;
18857;SDS011;9558;50.178;8.370;2022-11-09T00:18:45;3.10;;;1.17;;
18857;SDS011;9558;50.178;8.370;2022-11-09T00:21:13;5.45;;;1.38;;
18857;SDS011;9558;50.178;8.370;2022-11-09T00:23:40;1.98;;;1.48;;
18857;SDS011;9558;50.178;8.370;2022-11-09T00:26:08;2.38;;;1.23;;
18857;SDS011;9558;50.178;8.370;2022-11-09T00:28:36;1.35;;;1.20;;
18857;SDS011;9558;50.178;8.370;2022-11-09T00:31:05;1.23;;;1.17;;
18857;SDS011;9558;50.178;8.370;2022-11-09T00:33:33;3.47;;;1.45;;
18857;SDS011;9558;50.178;8.370;2022-11-09T00:36:02;1.63;;;1.20;;
18857;SDS011;9558;50.178;8.370;2022-11-09T00:38:31;2.45;;;1.63;;
18857;SDS011;9558;50.178;8.370;2022-11-09T00:40:58;2.08;;;1.52;;
18857;SDS011;9558;50.178;8.370;2022-11-09T00:43:25;2.67;;;1.73;;
18857;SDS011;9558;50.178;8.370;2022-11-09T00:45:52;3.42;;;1.80;;
18857;SDS011;9558;50.178;8.370;2022-11-09T00:48:20;2.22;;;1.52;;
18857;SDS011;9558;50.178;8.370;2022-11-09T00:50:48;2.97;;;1.50;;
18857;SDS011;9558;50.178;8.370;2022-11-09T00:53:15;2.55;;;1.40;;
18857;SDS011;9558;50.178;8.370;2022-11-09T00:55:41;2.00;;;1.13;;
18857;SDS011;9558;50.178;8.370;2022-11-09T00:58:08;2.03;;;1.33;;
18857;SDS011;9558;50.178;8.370;2022-11-09T01:00:34;4.07;;;1.65;;
18857;SDS011;9558;50.178;8.370;2022-11-09T01:03:02;1.77;;;1.38;;
18857;SDS011;9558;50.178;8.370;2022-11-09T01:05:30;1.83;;;1.13;;
18857;SDS011;9558;50.178;8.370;2022-11-09T01:07:56;1.27;;;1.13;;
18857;SDS011;9558;50.178;8.370;2022-11-09T01:10:23;2.08;;;1.40;;
18857;SDS011;9558;50.178;8.370;2022-11-09T01:12:49;2.15;;;1.30;;
18857;SDS011;9558;50.178;8.370;2022-11-09T01:15:16;4.05;;;1.55;;
18857;SDS011;9558;50.178;8.370;2022-11-09T01:17:42;1.73;;;1.40;;
18857;SDS011;9558;50.178;8.370;2022-11-09T01:20:09;2.35;;;1.58;;
18857;SDS011;9558;50.178;8.370;2022-11-09T01:22:38;1.35;;;1.25;;
18857;SDS011;9558;50.178;8.370;2022-11-09T01:25:05;1.83;;;1.42;;
18857;SDS011;9558;50.178;8.370;2022-11-09T01:27:31;2.20;;;1.60;;
18857;SDS011;9558;50.178;8.370;2022-11-09T01:29:58;1.95;;;0.82;;
18857;SDS011;9558;50.178;8.370;2022-11-09T01:32:25;3.30;;;1.48;;
18857;SDS011;9558;50.178;8.370;2022-11-09T01:34:51;1.95;;;1.50;;
18857;SDS011;9558;50.178;8.370;2022-11-09T01:37:18;1.85;;;1.55;;
18857;SDS011;9558;50.178;8.370;2022-11-09T01:39:46;2.13;;;1.77;;
18857;SDS011;9558;50.178;8.370;2022-11-09T01:42:12;2.90;;;1.50;;
18857;SDS011;9558;50.178;8.370;2022-11-09T01:44:39;1.50;;;1.10;;
18857;SDS011;9558;50.178;8.370;2022-11-09T01:47:06;4.22;;;1.98;;
18857;SDS011;9558;50.178;8.370;2022-11-09T01:52:10;4.40;;;1.70;;
18857;SDS011;9558;50.178;8.370;2022-11-09T01:54:41;2.85;;;2.08;;
18857;SDS011;9558;50.178;8.370;2022-11-09T01:57:12;1.63;;;1.52;;
18857;SDS011;9558;50.178;8.370;2022-11-09T01:59:45;3.08;;;1.80;;
18857;SDS011;9558;50.178;8.370;2022-11-09T02:02:15;4.63;;;2.08;;
18857;SDS011;9558;50.178;8.370;2022-11-09T02:04:44;2.92;;;1.80;;
18857;SDS011;9558;50.178;8.370;2022-11-09T02:07:14;2.85;;;1.65;;
18857;SDS011;9558;50.178;8.370;2022-11-09T02:09:42;3.45;;;2.17;;
18857;SDS011;9558;50.178;8.370;2022-11-09T02:12:15;3.50;;;1.80;;
18857;SDS011;9558;50.178;8.370;2022-11-09T02:14:43;2.17;;;1.63;;
18857;SDS011;9558;50.178;8.370;2022-11-09T02:17:10;2.47;;;2.20;;
18857;SDS011;9558;50.178;8.370;2022-11-09T02:19:37;2.30;;;1.73;;
18857;SDS011;9558;50.178;8.370;2022-11-09T02:22:05;3.05;;;1.75;;
18857;SDS011;9558;50.178;8.370;2022-11-09T02:24:31;2.70;;;2.15;;
18857;SDS011;9558;50.178;8.370;2022-11-09T02:26:58;3.45;;;2.08;;
18857;SDS011;9558;50.178;8.370;2022-11-09T02:29:26;2.40;;;1.90;;
18857;SDS011;9558;50.178;8.370;2022-11-09T02:31:58;3.17;;;1.67;;
18857;SDS011;9558;50.178;8.370;2022-11-09T02:34:28;2.13;;;1.70;;
18857;SDS011;9558;50.178;8.370;2022-11-09T02:36:55;1.40;;;1.20;;
18857;SDS011;9558;50.178;8.370;2022-11-09T02:39:23;1.88;;;1.67;;
18857;SDS011;9558;50.178;8.370;2022-11-09T02:41:53;2.08;;;1.70;;
18857;SDS011;9558;50.178;8.370;2022-11-09T02:44:22;3.40;;;1.52;;
18857;SDS011;9558;50.178;8.370;2022-11-09T02:46:50;2.03;;;1.40;;
18857;SDS011;9558;50.178;8.370;2022-11-09T02:49:17;2.97;;;1.83;;
18857;SDS011;9558;50.178;8.370;2022-11-09T02:51:43;4.35;;;1.50;;
18857;SDS011;9558;50.178;8.370;2022-11-09T02:54:10;1.65;;;1.40;;
18857;SDS011;9558;50.178;8.370;2022-11-09T02:56:37;1.70;;;1.58;;
18857;SDS011;9558;50.178;8.370;2022-11-09T02:59:04;2.42;;;1.70;;
18857;SDS011;9558;50.178;8.370;2022-11-09T03:01:30;2.22;;;1.73;;
18857;SDS011;9558;50.178;8.370;2022-11-09T03:03:57;2.35;;;1.50;;
18857;SDS011;9558;50.178;8.370;2022-11-09T03:06:23;2.40;;;1.90;;
18857;SDS011;9558;50.178;8.370;2022-11-09T03:08:58;2.75;;;1.20;;
18857;SDS011;9558;50.178;8.370;2022-11-09T03:11:25;2.80;;;1.80;;
18857;SDS011;9558;50.178;8.370;2022-11-09T03:13:53;1.95;;;1.63;;
18857;SDS011;9558;50.178;8.370;2022-11-09T03:16:19;2.53;;;1.60;;
18857;SDS011;9558;50.178;8.370;2022-11-09T03:18:46;1.65;;;1.48;;
18857;SDS011;9558;50.178;8.370;2022-11-09T03:21:13;2.47;;;1.98;;
18857;SDS011;9558;50.178;8.370;2022-11-09T03:23:39;2.10;;;1.88;;
18857;SDS011;9558;50.178;8.370;2022-11-09T03:26:06;4.85;;;2.45;;
18857;SDS011;9558;50.178;8.370;2022-11-09T03:28:32;3.88;;;2.08;;
18857;SDS011;9558;50.178;8.370;2022-11-09T03:31:00;2.72;;;1.88;;
18857;SDS011;9558;50.178;8.370;2022-11-09T03:33:27;4.82;;;2.13;;
18857;SDS011;9558;50.178;8.370;2022-11-09T03:35:53;2.60;;;2.30;;
18857;SDS011;9558;50.178;8.370;2022-11-09T03:38:20;2.47;;;2.05;;
18857;SDS011;9558;50.178;8.370;2022-11-09T03:40:46;3.15;;;2.47;;
18857;SDS011;9558;50.178;8.370;2022-11-09T03:43:13;3.13;;;2.28;;
18857;SDS011;9558;50.178;8.370;2022-11-09T03:45:39;3.50;;;2.38;;
18857;SDS011;9558;50.178;8.370;2022-11-09T03:48:07;4.25;;;2.67;;
18857;SDS011;9558;50.178;8.370;2022-11-09T03:50:34;5.30;;;2.75;;
18857;SDS011;9558;50.178;8.370;2022-11-09T03:53:04;4.47;;;2.95;;
18857;SDS011;9558;50.178;8.370;2022-11-09T03:55:32;3.58;;;2.70;;
18857;SDS011;9558;50.178;8.370;2022-11-09T03:57:58;3.22;;;2.53;;
18857;SDS011;9558;50.178;8.370;2022-11-09T04:00:25;4.57;;;3.13;;
18857;SDS011;9558;50.178;8.370;2022-11-09T04:02:51;3.67;;;2.65;;
18857;SDS011;9558;50.178;8.370;2022-11-09T04:05:19;4.07;;;2.92;;
18857;SDS011;9558;50.178;8.370;2022-11-09T04:07:46;5.25;;;3.20;;
18857;SDS011;9558;50.178;8.370;2022-11-09T04:12:40;5.40;;;3.13;;
18857;SDS011;9558;50.178;8.370;2022-11-09T04:15:07;6.00;;;3.47;;
18857;SDS011;9558;50.178;8.370;2022-11-09T04:17:34;6.20;;;3.75;;
18857;SDS011;9558;50.178;8.370;2022-11-09T04:20:00;4.15;;;3.00;;
18857;SDS011;9558;50.178;8.370;2022-11-09T04:22:28;4.75;;;2.72;;
18857;SDS011;9558;50.178;8.370;2022-11-09T04:24:54;4.53;;;3.53;;
18857;SDS011;9558;50.178;8.370;2022-11-09T04:27:21;5.00;;;3.80;;
18857;SDS011;9558;50.178;8.370;2022-11-09T04:29:47;4.32;;;3.28;;
18857;SDS011;9558;50.178;8.370;2022-11-09T04:32:14;5.03;;;2.90;;
18857;SDS011;9558;50.178;8.370;2022-11-09T04:34:40;5.32;;;3.40;;
18857;SDS011;9558;50.178;8.370;2022-11-09T04:37:07;4.07;;;3.10;;
18857;SDS011;9558;50.178;8.370;2022-11-09T04:39:35;4.75;;;2.75;;
18857;SDS011;9558;50.178;8.370;2022-11-09T04:42:01;5.00;;;3.33;;
18857;SDS011;9558;50.178;8.370;2022-11-09T04:44:28;5.70;;;4.15;;
18857;SDS011;9558;50.178;8.370;2022-11-09T04:46:54;7.55;;;4.72;;
18857;SDS011;9558;50.178;8.370;2022-11-09T04:49:21;5.60;;;3.83;;
18857;SDS011;9558;50.178;8.370;2022-11-09T04:51:47;13.70;;;3.85;;
18857;SDS011;9558;50.178;8.370;2022-11-09T04:54:13;11.15;;;4.32;;
18857;SDS011;9558;50.178;8.370;2022-11-09T04:56:41;6.85;;;3.38;;
18857;SDS011;9558;50.178;8.370;2022-11-09T04:59:08;6.38;;;4.00;;
18857;SDS011;9558;50.178;8.370;2022-11-09T05:05:56;5.07;;;3.50;;
18857;SDS011;9558;50.178;8.370;2022-11-09T05:08:23;5.88;;;3.33;;
18857;SDS011;9558;50.178;8.370;2022-11-09T05:10:49;7.75;;;3.92;;
18857;SDS011;9558;50.178;8.370;2022-11-09T05:13:17;4.93;;;3.30;;
18857;SDS011;9558;50.178;8.370;2022-11-09T05:15:44;4.20;;;2.78;;
18857;SDS011;9558;50.178;8.370;2022-11-09T05:18:10;2.67;;;2.20;;
18857;SDS011;9558;50.178;8.370;2022-11-09T05:20:37;6.65;;;3.08;;
18857;SDS011;9558;50.178;8.370;2022-11-09T05:23:03;4.40;;;2.70;;
18857;SDS011;9558;50.178;8.370;2022-11-09T05:25:47;1.98;;;1.70;;
18857;SDS011;9558;50.178;8.370;2022-11-09T05:28:13;7.10;;;3.20;;
18857;SDS011;9558;50.178;8.370;2022-11-09T05:30:41;3.60;;;2.33;;
18857;SDS011;9558;50.178;8.370;2022-11-09T05:33:08;2.88;;;2.30;;
18857;SDS011;9558;50.178;8.370;2022-11-09T05:35:34;5.43;;;2.55;;
18857;SDS011;9558;50.178;8.370;2022-11-09T05:38:00;3.50;;;2.47;;
18857;SDS011;9558;50.178;8.370;2022-11-09T05:40:27;3.17;;;2.47;;
18857;SDS011;9558;50.178;8.370;2022-11-09T05:42:54;3.88;;;2.70;;
18857;SDS011;9558;50.178;8.370;2022-11-09T05:45:20;4.30;;;2.75;;
18857;SDS011;9558;50.178;8.370;2022-11-09T05:47:50;5.68;;;2.95;;
18857;SDS011;9558;50.178;8.370;2022-11-09T05:50:17;5.90;;;2.63;;
18857;SDS011;9558;50.178;8.370;2022-11-09T05:52:43;3.78;;;2.65;;
18857;SDS011;9558;50.178;8.370;2022-11-09T05:55:10;5.85;;;3.08;;
18857;SDS011;9558;50.178;8.370;2022-11-09T05:57:36;3.00;;;2.28;;
18857;SDS011;9558;50.178;8.370;2022-11-09T06:00:03;4.20;;;2.35;;
18857;SDS011;9558;50.178;8.370;2022-11-09T06:02:31;5.97;;;2.63;;
18857;SDS011;9558;50.178;8.370;2022-11-09T06:04:59;6.13;;;3.85;;
18857;SDS011;9558;50.178;8.370;2022-11-09T06:07:25;6.53;;;3.08;;
18857;SDS011;9558;50.178;8.370;2022-11-09T06:09:52;4.15;;;3.08;;
18857;SDS011;9558;50.178;8.370;2022-11-09T06:12:18;4.22;;;3.10;;
18857;SDS011;9558;50.178;8.370;2022-11-09T06:14:44;5.00;;;3.22;;
18857;SDS011;9558;50.178;8.370;2022-11-09T06:17:11;4.75;;;3.25;;
18857;SDS011;9558;50.178;8.370;2022-11-09T06:19:37;6.63;;;3.10;;
18857;SDS011;9558;50.178;8.370;2022-11-09T06:22:05;5.88;;;3.95;;
18857;SDS011;9558;50.178;8.370;2022-11-09T06:24:32;7.40;;;4.90;;
18857;SDS011;9558;50.178;8.370;2022-11-09T06:26:58;10.07;;;4.88;;
18857;SDS011;9558;50.178;8.370;2022-11-09T06:29:25;8.68;;;5.22;;
18857;SDS011;9558;50.178;8.370;2022-11-09T06:31:51;5.88;;;4.30;;
18857;SDS011;9558;50.178;8.370;2022-11-09T06:34:18;6.70;;;4.53;;
18857;SDS011;9558;50.178;8.370;2022-11-09T06:36:44;8.48;;;4.65;;
18857;SDS011;9558;50.178;8.370;2022-11-09T06:39:12;13.30;;;4.43;;
18857;SDS011;9558;50.178;8.370;2022-11-09T06:41:39;6.32;;;4.55;;
18857;SDS011;9558;50.178;8.370;2022-11-09T06:44:05;10.80;;;6.20;;
18857;SDS011;9558;50.178;8.370;2022-11-09T06:46:32;8.65;;;5.45;;
18857;SDS011;9558;50.178;8.370;2022-11-09T06:48:59;9.68;;;4.68;;
18857;SDS011;9558;50.178;8.370;2022-11-09T06:51:26;9.70;;;5.75;;
18857;SDS011;9558;50.178;8.370;2022-11-09T06:53:52;5.72;;;3.40;;
18857;SDS011;9558;50.178;8.370;2022-11-09T06:56:20;9.73;;;5.88;;
18857;SDS011;9558;50.178;8.370;2022-11-09T06:58:47;9.68;;;5.47;;
18857;SDS011;9558;50.178;8.370;2022-11-09T07:01:15;9.25;;;6.28;;
18857;SDS011;9558;50.178;8.370;2022-11-09T07:03:43;9.45;;;4.90;;
18857;SDS011;9558;50.178;8.370;2022-11-09T07:06:10;8.93;;;5.57;;
18857;SDS011;9558;50.178;8.370;2022-11-09T07:08:38;6.32;;;4.43;;
18857;SDS011;9558;50.178;8.370;2022-11-09T07:11:05;11.10;;;6.53;;
18857;SDS011;9558;50.178;8.370;2022-11-09T07:13:34;9.30;;;4.88;;
18857;SDS011;9558;50.178;8.370;2022-11-09T07:16:00;9.43;;;5.05;;
18857;SDS011;9558;50.178;8.370;2022-11-09T07:18:27;8.35;;;5.18;;
18857;SDS011;9558;50.178;8.370;2022-11-09T07:20:53;4.80;;;3.72;;
18857;SDS011;9558;50.178;8.370;2022-11-09T07:23:20;8.13;;;5.18;;
18857;SDS011;9558;50.178;8.370;2022-11-09T07:25:46;9.48;;;5.10;;
18857;SDS011;9558;50.178;8.370;2022-11-09T07:28:12;7.55;;;5.70;;
18857;SDS011;9558;50.178;8.370;2022-11-09T07:30:40;9.23;;;4.43;;
18857;SDS011;9558;50.178;8.370;2022-11-09T07:33:10;9.00;;;4.90;;
18857;SDS011;9558;50.178;8.370;2022-11-09T07:35:39;8.88;;;5.45;;
18857;SDS011;9558;50.178;8.370;2022-11-09T07:38:05;6.85;;;4.85;;
18857;SDS011;9558;50.178;8.370;2022-11-09T07:40:33;7.78;;;4.40;;
18857;SDS011;9558;50.178;8.370;2022-11-09T07:42:59;8.60;;;5.63;;
18857;SDS011;9558;50.178;8.370;2022-11-09T07:45:27;9.77;;;4.88;;
18857;SDS011;9558;50.178;8.370;2022-11-09T07:47:56;11.10;;;4.75;;
18857;SDS011;9558;50.178;8.370;2022-11-09T07:50:23;6.85;;;5.47;;
18857;SDS011;9558;50.178;8.370;2022-11-09T07:52:50;7.25;;;4.68;;
18857;SDS011;9558;50.178;8.370;2022-11-09T07:55:17;9.35;;;5.65;;
18857;SDS011;9558;50.178;8.370;2022-11-09T07:57:43;8.88;;;4.53;;
18857;SDS011;9558;50.178;8.370;2022-11-09T08:00:11;8.85;;;5.70;;
18857;SDS011;9558;50.178;8.370;2022-11-09T08:02:39;7.38;;;5.00;;
18857;SDS011;9558;50.178;8.370;2022-11-09T08:05:07;7.03;;;4.75;;
18857;SDS011;9558;50.178;8.370;2022-11-09T08:07:34;5.82;;;4.30;;
18857;SDS011;9558;50.178;8.370;2022-11-09T08:12:27;5.38;;;4.00;;
18857;SDS011;9558;50.178;8.370;2022-11-09T08:14:54;9.35;;;4.35;;
18857;SDS011;9558;50.178;8.370;2022-11-09T08:17:20;5.45;;;3.88;;
18857;SDS011;9558;50.178;8.370;2022-11-09T08:19:47;8.95;;;4.28;;
18857;SDS011;9558;50.178;8.370;2022-11-09T08:22:14;7.80;;;5.30;;
18857;SDS011;9558;50.178;8.370;2022-11-09T08:24:41;6.18;;;4.30;;
18857;SDS011;9558;50.178;8.370;2022-11-09T08:27:07;6.82;;;3.67;;
18857;SDS011;9558;50.178;8.370;2022-11-09T08:29:34;10.50;;;4.20;;
18857;SDS011;9558;50.178;8.370;2022-11-09T08:32:00;8.15;;;4.43;;
18857;SDS011;9558;50.178;8.370;2022-11-09T08:34:27;7.78;;;3.22;;
18857;SDS011;9558;50.178;8.370;2022-11-09T08:36:53;6.38;;;3.58;;
18857;SDS011;9558;50.178;8.370;2022-11-09T08:39:21;6.75;;;4.22;;
18857;SDS011;9558;50.178;8.370;2022-11-09T08:41:48;5.57;;;3.42;;
18857;SDS011;9558;50.178;8.370;2022-11-09T08:44:14;4.63;;;3.10;;
18857;SDS011;9558;50.178;8.370;2022-11-09T08:46:41;9.82;;;4.22;;
18857;SDS011;9558;50.178;8.370;2022-11-09T08:49:07;5.90;;;3.80;;
18857;SDS011;9558;50.178;8.370;2022-11-09T08:51:34;5.22;;;4.55;;
18857;SDS011;9558;50.178;8.370;2022-11-09T08:54:00;4.57;;;3.05;;
18857;SDS011;9558;50.178;8.370;2022-11-09T08:56:29;8.68;;;3.83;;
18857;SDS011;9558;50.178;8.370;2022-11-09T08:58:55;5.47;;;4.20;;
18857;SDS011;9558;50.178;8.370;2022-11-09T09:01:22;6.18;;;4.43;;
18857;SDS011;9558;50.178;8.370;2022-11-09T09:03:49;6.95;;;4.18;;
18857;SDS011;9558;50.178;8.370;2022-11-09T09:06:15;6.22;;;3.33;;
18857;SDS011;9558;50.178;8.370;2022-11-09T09:08:42;6.28;;;3.63;;
18857;SDS011;9558;50.178;8.370;2022-11-09T09:11:08;4.90;;;3.53;;
18857;SDS011;9558;50.178;8.370;2022-11-09T09:13:36;3.92;;;2.95;;
18857;SDS011;9558;50.178;8.370;2022-11-09T09:16:09;3.70;;;2.60;;
18857;SDS011;9558;50.178;8.370;2022-11-09T09:18:37;5.07;;;3.03;;
18857;SDS011;9558;50.178;8.370;2022-11-09T09:21:04;5.95;;;3.53;;
18857;SDS011;9558;50.178;8.370;2022-11-09T09:23:32;4.60;;;2.50;;
18857;SDS011;9558;50.178;8.370;2022-11-09T09:25:58;3.25;;;2.60;;
18857;SDS011;9558;50.178;8.370;2022-11-09T09:28:25;3.75;;;2.60;;
18857;SDS011;9558;50.178;8.370;2022-11-09T09:30:53;5.43;;;2.47;;
18857;SDS011;9558;50.178;8.370;2022-11-09T09:33:22;3.67;;;3.10;;
18857;SDS011;9558;50.178;8.370;2022-11-09T09:35:48;4.72;;;2.58;;
18857;SDS011;9558;50.178;8.370;2022-11-09T09:38:15;3.13;;;2.42;;
18857;SDS011;9558;50.178;8.370;2022-11-09T09:40:45;4.40;;;2.30;;
18857;SDS011;9558;50.178;8.370;2022-11-09T09:43:23;3.75;;;2.45;;
18857;SDS011;9558;50.178;8.370;2022-11-09T09:45:55;3.10;;;2.15;;
18857;SDS011;9558;50.178;8.370;2022-11-09T09:48:25;4.03;;;2.10;;
18857;SDS011;9558;50.178;8.370;2022-11-09T09:50:57;5.13;;;2.35;;
18857;SDS011;9558;50.178;8.370;2022-11-09T09:53:29;3.53;;;1.92;;
18857;SDS011;9558;50.178;8.370;2022-11-09T09:55:59;2.90;;;2.03;;
18857;SDS011;9558;50.178;8.370;2022-11-09T09:58:30;2.88;;;2.05;;
18857;SDS011;9558;50.178;8.370;2022-11-09T10:01:02;3.10;;;2.28;;
18857;SDS011;9558;50.178;8.370;2022-11-09T10:03:32;2.50;;;2.20;;
18857;SDS011;9558;50.178;8.370;2022-11-09T10:06:00;2.95;;;2.15;;
18857;SDS011;9558;50.178;8.370;2022-11-09T10:08:37;2.38;;;1.77;;
18857;SDS011;9558;50.178;8.370;2022-11-09T10:11:15;3.05;;;1.60;;
18857;SDS011;9558;50.178;8.370;2022-11-09T10:16:47;2.75;;;1.50;;
18857;SDS011;9558;50.178;8.370;2022-11-09T10:19:27;1.20;;;1.08;;
18857;SDS011;9558;50.178;8.370;2022-11-09T10:22:07;2.08;;;1.50;;
18857;SDS011;9558;50.178;8.370;2022-11-09T10:24:41;1.70;;;1.30;;
18857;SDS011;9558;50.178;8.370;2022-11-09T10:27:20;1.20;;;0.85;;
18857;SDS011;9558;50.178;8.370;2022-11-09T10:29:51;1.30;;;1.20;;
18857;SDS011;9558;50.178;8.370;2022-11-09T10:32:21;1.27;;;0.90;;
18857;SDS011;9558;50.178;8.370;2022-11-09T10:34:51;1.67;;;1.35;;
18857;SDS011;9558;50.178;8.370;2022-11-09T10:37:20;1.30;;;1.20;;
18857;SDS011;9558;50.178;8.370;2022-11-09T10:39:54;1.33;;;1.10;;
18857;SDS011;9558;50.178;8.370;2022-11-09T10:42:24;1.23;;;0.98;;
18857;SDS011;9558;50.178;8.370;2022-11-09T10:44:50;1.33;;;0.68;;
18857;SDS011;9558;50.178;8.370;2022-11-09T10:47:17;0.73;;;0.73;;
18857;SDS011;9558;50.178;8.370;2022-11-09T10:49:45;0.88;;;0.70;;
18857;SDS011;9558;50.178;8.370;2022-11-09T10:52:32;1.27;;;0.90;;
18857;SDS011;9558;50.178;8.370;2022-11-09T10:55:14;1.42;;;0.85;;
18857;SDS011;9558;50.178;8.370;2022-11-09T10:57:51;1.55;;;0.98;;
18857;SDS011;9558;50.178;8.370;2022-11-09T11:00:21;0.88;;;0.80;;
18857;SDS011;9558;50.178;8.370;2022-11-09T11:02:48;1.77;;;0.85;;
18857;SDS011;9558;50.178;8.370;2022-11-09T11:05:22;1.30;;;0.80;;
18857;SDS011;9558;50.178;8.370;2022-11-09T11:07:50;0.50;;;0.50;;
18857;SDS011;9558;50.178;8.370;2022-11-09T11:10:18;0.80;;;0.70;;
18857;SDS011;9558;50.178;8.370;2022-11-09T11:12:56;4.15;;;1.58;;
18857;SDS011;9558;50.178;8.370;2022-11-09T11:15:47;0.73;;;0.70;;
18857;SDS011;9558;50.178;8.370;2022-11-09T11:18:18;0.65;;;0.65;;
18857;SDS011;9558;50.178;8.370;2022-11-09T11:23:38;1.20;;;0.68;;
18857;SDS011;9558;50.178;8.370;2022-11-09T11:26:11;0.28;;;0.28;;
18857;SDS011;9558;50.178;8.370;2022-11-09T11:28:47;0.52;;;0.40;;
18857;SDS011;9558;50.178;8.370;2022-11-09T11:31:17;1.08;;;0.52;;
18857;SDS011;9558;50.178;8.370;2022-11-09T11:33:45;1.65;;;0.50;;
18857;SDS011;9558;50.178;8.370;2022-11-09T11:36:16;0.30;;;0.30;;
18857;SDS011;9558;50.178;8.370;2022-11-09T11:38:48;1.75;;;0.40;;
18857;SDS011;9558;50.178;8.370;2022-11-09T11:41:32;1.08;;;0.60;;
18857;SDS011;9558;50.178;8.370;2022-11-09T11:44:24;1.10;;;0.40;;
18857;SDS011;9558;50.178;8.370;2022-11-09T11:47:07;1.17;;;0.52;;
18857;SDS011;9558;50.178;8.370;2022-11-09T11:49:38;1.45;;;0.70;;
18857;SDS011;9558;50.178;8.370;2022-11-09T11:52:18;1.27;;;0.52;;
18857;SDS011;9558;50.178;8.370;2022-11-09T11:54:54;0.85;;;0.40;;
18857;SDS011;9558;50.178;8.370;2022-11-09T11:57:45;1.50;;;0.60;;
18857;SDS011;9558;50.178;8.370;2022-11-09T12:00:22;0.30;;;0.30;;
18857;SDS011;9558;50.178;8.370;2022-11-09T12:06:12;0.93;;;0.45;;
18857;SDS011;9558;50.178;8.370;2022-11-09T12:09:04;1.50;;;0.50;;
18857;SDS011;9558;50.178;8.370;2022-11-09T12:11:42;0.95;;;0.50;;
18857;SDS011;9558;50.178;8.370;2022-11-09T12:14:21;0.30;;;0.30;;
18857;SDS011;9558;50.178;8.370;2022-11-09T12:16:58;1.25;;;0.40;;
18857;SDS011;9558;50.178;8.370;2022-11-09T12:22:21;0.65;;;0.38;;
18857;SDS011;9558;50.178;8.370;2022-11-09T12:24:59;0.65;;;0.30;;
18857;SDS011;9558;50.178;8.370;2022-11-09T12:30:11;2.80;;;0.65;;
18857;SDS011;9558;50.178;8.370;2022-11-09T12:32:43;0.52;;;0.30;;
18857;SDS011;9558;50.178;8.370;2022-11-09T12:35:16;0.88;;;0.50;;
18857;SDS011;9558;50.178;8.370;2022-11-09T12:40:21;0.75;;;0.40;;
18857;SDS011;9558;50.178;8.370;2022-11-09T12:42:50;1.48;;;0.47;;
18857;SDS011;9558;50.178;8.370;2022-11-09T12:45:25;0.45;;;0.45;;
18857;SDS011;9558;50.178;8.370;2022-11-09T12:47:56;0.90;;;0.30;;
18857;SDS011;9558;50.178;8.370;2022-11-09T12:50:29;0.28;;;0.28;;
18857;SDS011;9558;50.178;8.370;2022-11-09T12:52:56;0.65;;;0.65;;
18857;SDS011;9558;50.178;8.370;2022-11-09T12:55:26;0.20;;;0.20;;
18857;SDS011;9558;50.178;8.370;2022-11-09T12:57:59;0.52;;;0.20;;
18857;SDS011;9558;50.178;8.370;2022-11-09T13:00:45;0.93;;;0.68;;
18857;SDS011;9558;50.178;8.370;2022-11-09T13:03:15;0.35;;;0.35;;
18857;SDS011;9558;50.178;8.370;2022-11-09T13:05:45;0.55;;;0.43;;
18857;SDS011;9558;50.178;8.370;2022-11-09T13:08:14;1.05;;;0.60;;
18857;SDS011;9558;50.178;8.370;2022-11-09T13:10:45;0.73;;;0.50;;
18857;SDS011;9558;50.178;8.370;2022-11-09T13:13:17;2.15;;;0.40;;
18857;SDS011;9558;50.178;8.370;2022-11-09T13:16:03;0.40;;;0.40;;
18857;SDS011;9558;50.178;8.370;2022-11-09T13:18:45;1.10;;;0.60;;
18857;SDS011;9558;50.178;8.370;2022-11-09T13:21:31;0.52;;;0.40;;
18857;SDS011;9558;50.178;8.370;2022-11-09T13:24:10;1.48;;;0.40;;
18857;SDS011;9558;50.178;8.370;2022-11-09T13:27:35;0.40;;;0.40;;
18857;SDS011;9558;50.178;8.370;2022-11-09T13:33:19;0.68;;;0.35;;
18857;SDS011;9558;50.178;8.370;2022-11-09T13:41:46;1.73;;;0.50;;
18857;SDS011;9558;50.178;8.370;2022-11-09T13:44:15;4.03;;;0.70;;
18857;SDS011;9558;50.178;8.370;2022-11-09T13:46:45;1.10;;;0.73;;
18857;SDS011;9558;50.178;8.370;2022-11-09T13:52:02;0.20;;;0.20;;
18857;SDS011;9558;50.178;8.370;2022-11-09T13:54:30;0.32;;;0.32;;
18857;SDS011;9558;50.178;8.370;2022-11-09T13:56:58;0.52;;;0.40;;
18857;SDS011;9558;50.178;8.370;2022-11-09T13:59:30;0.20;;;0.20;;
18857;SDS011;9558;50.178;8.370;2022-11-09T14:02:00;0.45;;;0.45;;
18857;SDS011;9558;50.178;8.370;2022-11-09T14:04:28;0.32;;;0.28;;
18857;SDS011;9558;50.178;8.370;2022-11-09T14:06:58;0.20;;;0.20;;
18857;SDS011;9558;50.178;8.370;2022-11-09T14:09:27;0.30;;;0.30;;
18857;SDS011;9558;50.178;8.370;2022-11-09T14:12:07;0.30;;;0.20;;
18857;SDS011;9558;50.178;8.370;2022-11-09T14:14:49;1.23;;;0.40;;
18857;SDS011;9558;50.178;8.370;2022-11-09T14:17:35;1.52;;;0.75;;
18857;SDS011;9558;50.178;8.370;2022-11-09T14:20:10;1.80;;;0.28;;
18857;SDS011;9558;50.178;8.370;2022-11-09T14:22:45;0.70;;;0.43;;
18857;SDS011;9558;50.178;8.370;2022-11-09T14:25:12;1.02;;;0.50;;
18857;SDS011;9558;50.178;8.370;2022-11-09T14:27:45;3.40;;;0.80;;
18857;SDS011;9558;50.178;8.370;2022-11-09T14:30:18;0.80;;;0.50;;
18857;SDS011;9558;50.178;8.370;2022-11-09T14:32:48;1.20;;;0.52;;
18857;SDS011;9558;50.178;8.370;2022-11-09T14:35:20;0.52;;;0.32;;
18857;SDS011;9558;50.178;8.370;2022-11-09T14:37:48;0.60;;;0.60;;
18857;SDS011;9558;50.178;8.370;2022-11-09T14:40:17;0.63;;;0.63;;
18857;SDS011;9558;50.178;8.370;2022-11-09T14:42:48;0.40;;;0.40;;
18857;SDS011;9558;50.178;8.370;2022-11-09T14:45:20;0.40;;;0.40;;
18857;SDS011;9558;50.178;8.370;2022-11-09T14:47:48;0.80;;;0.40;;
18857;SDS011;9558;50.178;8.370;2022-11-09T14:50:19;1.13;;;0.40;;
18857;SDS011;9558;50.178;8.370;2022-11-09T14:52:47;1.88;;;0.57;;
18857;SDS011;9558;50.178;8.370;2022-11-09T14:55:17;0.68;;;0.30;;
18857;SDS011;9558;50.178;8.370;2022-11-09T14:57:45;0.38;;;0.38;;
18857;SDS011;9558;50.178;8.370;2022-11-09T15:00:24;0.20;;;0.20;;
18857;SDS011;9558;50.178;8.370;2022-11-09T15:02:54;0.85;;;0.77;;
18857;SDS011;9558;50.178;8.370;2022-11-09T15:05:28;1.75;;;0.77;;
18857;SDS011;9558;50.178;8.370;2022-11-09T15:07:57;1.83;;;0.35;;
18857;SDS011;9558;50.178;8.370;2022-11-09T15:10:25;0.90;;;0.55;;
18857;SDS011;9558;50.178;8.370;2022-11-09T15:12:55;3.45;;;0.40;;
18857;SDS011;9558;50.178;8.370;2022-11-09T15:15:26;0.45;;;0.40;;
18857;SDS011;9558;50.178;8.370;2022-11-09T15:17:55;0.55;;;0.52;;
18857;SDS011;9558;50.178;8.370;2022-11-09T15:20:23;0.50;;;0.50;;
18857;SDS011;9558;50.178;8.370;2022-11-09T15:22:52;0.50;;;0.20;;
18857;SDS011;9558;50.178;8.370;2022-11-09T15:25:22;4.90;;;1.15;;
18857;SDS011;9558;50.178;8.370;2022-11-09T15:27:58;0.73;;;0.47;;
18857;SDS011;9558;50.178;8.370;2022-11-09T15:30:44;0.40;;;0.30;;
18857;SDS011;9558;50.178;8.370;2022-11-09T15:33:20;0.43;;;0.35;;
18857;SDS011;9558;50.178;8.370;2022-11-09T15:35:49;0.35;;;0.35;;
18857;SDS011;9558;50.178;8.370;2022-11-09T15:38:27;1.65;;;0.57;;
18857;SDS011;9558;50.178;8.370;2022-11-09T15:40:56;1.20;;;0.52;;
18857;SDS011;9558;50.178;8.370;2022-11-09T15:43:23;0.60;;;0.40;;
18857;SDS011;9558;50.178;8.370;2022-11-09T15:45:52;2.83;;;0.75;;
18857;SDS011;9558;50.178;8.370;2022-11-09T15:48:19;0.45;;;0.45;;
18857;SDS011;9558;50.178;8.370;2022-11-09T15:50:46;2.03;;;0.80;;
18857;SDS011;9558;50.178;8.370;2022-11-09T15:53:13;6.72;;;0.82;;
18857;SDS011;9558;50.178;8.370;2022-11-09T15:55:40;4.00;;;0.60;;